Orel 5 — EMFH — position and weather

sailwx.info

Track history (hours):
 
Tides and Currents Weather Stations Pressure Air Temp Water Temp Dewpoint Dewpoint Depression Visibility Wind Speed Wind Dir Waves Ship Positions

Orel 5

Last reported at 2017-Jan-12 14:28 UTC. Time now 2017-Jan-18 12:08 UTC.
Position N 46°21' E 030°38'.

Length 108 m; draft 3.4 m.

Type: Cargo ship. MMSI: 272059000.

Date/timePositionNaut miles runAvg speedWind from/ knotsBaromVisibWave heightAir tempDewpointWater temp
2017-Jan-12 14:28N 46°21' E 030°38'0 0.0
2017-Jan-12 13:04N 46°21' E 030°38'0 0.0
2017-Jan-12 11:27N 46°21' E 030°38'  
2017-Jan-09 21:12N 46°27' E 030°55'4 5.9
2017-Jan-09 20:28N 46°32' E 030°56'33 5.6
2017-Jan-09 14:33N 46°36' E 031°43'8 7.6
2017-Jan-09 13:33N 46°38' E 031°54'7 6.9
2017-Jan-09 12:33N 46°44' E 031°55'3 2.7
2017-Jan-09 11:31N 46°47' E 031°53'0 0.0
2017-Jan-09 10:31N 46°47' E 031°53'1 1.2
2017-Jan-09 09:33N 46°48' E 031°53'7 6.7
2017-Jan-09 08:33N 46°53' E 031°60'3 3.2
2017-Jan-09 07:31N 46°56' E 031°60'0 0.0
2017-Jan-09 06:31N 46°56' E 031°60'0 0.0
2017-Jan-09 05:31N 46°56' E 031°60'0 0.0
2017-Jan-09 04:31N 46°56' E 031°60'0 0.0
2017-Jan-09 03:31N 46°56' E 031°60'0 0.0
2017-Jan-09 02:31N 46°56' E 031°60'0 0.0
2017-Jan-09 01:31N 46°56' E 031°60'0 0.0
2017-Jan-09 00:31N 46°56' E 031°60'0 0.0
2017-Jan-08 23:31N 46°56' E 031°60'0 0.0
2017-Jan-08 22:31N 46°56' E 031°60'0 0.0
2017-Jan-08 21:31N 46°56' E 031°60'0 0.0
2017-Jan-08 20:31N 46°56' E 031°60'0 0.0
2017-Jan-08 19:31N 46°56' E 031°60'0 0.0
2017-Jan-08 18:31N 46°56' E 031°60'0 0.0
2017-Jan-08 17:31N 46°56' E 031°60'0 0.0
2017-Jan-08 16:31N 46°56' E 031°60'0 0.0
2017-Jan-08 15:31N 46°56' E 031°60'0 0.0
2017-Jan-08 14:31N 46°56' E 031°60'0 0.0
2017-Jan-08 13:31N 46°56' E 031°60'0 0.0
2017-Jan-08 12:31N 46°56' E 031°60'0 0.0
2017-Jan-08 11:31N 46°56' E 031°60'0 0.0
2017-Jan-08 10:25N 46°56' E 031°60'0 0.0
2017-Jan-08 09:31N 46°56' E 031°60'0 0.0
2017-Jan-08 08:31N 46°56' E 031°60'0 0.0
2017-Jan-08 07:31N 46°56' E 031°60'0 0.0
2017-Jan-08 06:32N 46°56' E 031°60'0 0.0
2017-Jan-08 05:32N 46°56' E 031°60'0 0.0
2017-Jan-08 04:32N 46°56' E 031°60'0 0.0
2017-Jan-08 03:32N 46°56' E 031°60'0 0.0
2017-Jan-08 02:32N 46°56' E 031°60'0 0.0
2017-Jan-08 01:32N 46°56' E 031°60'0 0.0
2017-Jan-08 00:32N 46°56' E 031°60'0 0.0
2017-Jan-07 23:32N 46°56' E 031°60'0 0.0
2017-Jan-07 22:32N 46°56' E 031°60'0 0.0
2017-Jan-07 21:32N 46°56' E 031°60'0 0.0
2017-Jan-07 20:32N 46°56' E 031°60'0 0.0
2017-Jan-07 19:32N 46°56' E 031°60'0 0.0
2017-Jan-07 18:32N 46°56' E 031°60'0 0.0
2017-Jan-07 17:32N 46°56' E 031°60'0 0.0
2017-Jan-07 16:32N 46°56' E 031°60'0 0.0
2017-Jan-07 15:32N 46°56' E 031°60'0 0.0
2017-Jan-07 14:32N 46°56' E 031°60'2 0.9
2017-Jan-07 12:28N 46°56' E 031°57'0 0.0
2017-Jan-07 11:28N 46°56' E 031°57'0 0.0
2017-Jan-07 09:31N 46°56' E 031°57'0 0.0
2017-Jan-07 08:28N 46°56' E 031°57'0 0.0
2017-Jan-07 07:28N 46°56' E 031°57'0 0.0
2017-Jan-07 06:28N 46°56' E 031°57'0 0.0
2017-Jan-07 05:28N 46°56' E 031°57'0 0.0
2017-Jan-07 04:31N 46°56' E 031°57'0 0.0
2017-Jan-07 03:28N 46°56' E 031°57'0 0.0
2017-Jan-07 02:28N 46°56' E 031°57'0 0.0
2017-Jan-07 01:28N 46°56' E 031°57'0 0.0
2017-Jan-07 00:28N 46°56' E 031°57'0 0.0
2017-Jan-06 23:31N 46°56' E 031°57'0 0.0
2017-Jan-06 22:31N 46°56' E 031°57'0 0.0
2017-Jan-06 21:31N 46°56' E 031°57'0 0.0
2017-Jan-06 20:28N 46°56' E 031°57'0 0.0
2017-Jan-06 19:28N 46°56' E 031°57'0 0.0
2017-Jan-06 18:28N 46°56' E 031°57'0 0.0
2017-Jan-06 17:28N 46°56' E 031°57'0 0.0
2017-Jan-06 16:28N 46°56' E 031°57'0 0.0
2017-Jan-06 15:34N 46°56' E 031°57'0 0.0
2017-Jan-06 14:10N 46°56' E 031°57'0 0.0
2017-Jan-06 13:28N 46°56' E 031°57'0 0.0
2017-Jan-06 12:28N 46°56' E 031°57'0 0.0
2017-Jan-06 11:28N 46°56' E 031°57'0 0.0
2017-Jan-06 10:28N 46°56' E 031°57'0 0.0
2017-Jan-06 09:28N 46°56' E 031°57'0 0.0
2017-Jan-06 08:31N 46°56' E 031°57'0 0.0
2017-Jan-06 07:31N 46°56' E 031°57'0 0.0
2017-Jan-06 06:28N 46°56' E 031°57'0 0.0
2017-Jan-06 05:28N 46°56' E 031°57'0 0.0
2017-Jan-06 04:28N 46°56' E 031°57'0 0.0
2017-Jan-06 03:28N 46°56' E 031°57'0 0.0
2017-Jan-06 02:28N 46°56' E 031°57'0 0.0
2017-Jan-06 01:28N 46°56' E 031°57'0 0.0
2017-Jan-06 00:28N 46°56' E 031°57'0 0.0
2017-Jan-05 23:28N 46°56' E 031°57'0 0.0
2017-Jan-05 22:28N 46°56' E 031°57'0 0.0
2017-Jan-05 21:28N 46°56' E 031°57'0 0.0
2017-Jan-05 20:28N 46°56' E 031°57'0 0.0
2017-Jan-05 19:16N 46°56' E 031°57'0 0.0
2017-Jan-05 18:28N 46°56' E 031°57'0 0.0
2017-Jan-05 17:31N 46°56' E 031°57'0 0.0
2017-Jan-05 16:31N 46°56' E 031°57'0 0.0
2017-Jan-05 15:31N 46°56' E 031°57'0 0.0
2017-Jan-05 14:31N 46°56' E 031°57'0 0.0
2017-Jan-05 13:31N 46°56' E 031°57'0 0.0
2017-Jan-05 12:31N 46°56' E 031°57'0 0.0
2017-Jan-05 11:31N 46°56' E 031°57'0 0.0
2017-Jan-05 10:31N 46°56' E 031°57'0 0.0
2017-Jan-05 09:31N 46°56' E 031°57'0 0.0
2017-Jan-05 08:31N 46°56' E 031°57'0 0.0
2017-Jan-05 07:31N 46°56' E 031°57'0 0.0
2017-Jan-05 06:31N 46°56' E 031°57'0 0.0
2017-Jan-05 05:31N 46°56' E 031°57'0 0.0
2017-Jan-05 04:31N 46°56' E 031°57'0 0.0
2017-Jan-05 03:28N 46°56' E 031°57'0 0.0
2017-Jan-05 02:28N 46°56' E 031°57'0 0.0
2017-Jan-05 01:28N 46°56' E 031°57'0 0.0
2017-Jan-05 00:28N 46°56' E 031°57'0 0.0
2017-Jan-04 23:28N 46°56' E 031°57'0 0.0
2017-Jan-04 22:28N 46°56' E 031°57'0 0.0
2017-Jan-04 21:28N 46°56' E 031°57'42 1.6
2017-Jan-03 19:18N 46°34' E 031°04'6 7.7
2017-Jan-03 18:29N 46°30' E 030°57'  
Track history (hours):
 
Tides and Currents Weather Stations Pressure Air Temp Water Temp Dewpoint Dewpoint Depression Visibility Wind Speed Wind Dir Waves Ship Positions

Orel 5

Last reported at 2017-Jan-12 14:28 UTC. Time now 2017-Jan-18 12:08 UTC.
Position N 46°21' E 030°38'.

Length 108 m; draft 3.4 m.

Type: Cargo ship. MMSI: 272059000.

Date/timePositionNaut miles runAvg speedWind from/ knotsBaromVisibWave heightAir tempDewpointWater temp
2017-Jan-12 14:28N 46°21' E 030°38'0 0.0
2017-Jan-12 13:04N 46°21' E 030°38'0 0.0
2017-Jan-12 11:27N 46°21' E 030°38'  
2017-Jan-09 21:12N 46°27' E 030°55'4 5.9
2017-Jan-09 20:28N 46°32' E 030°56'33 5.6
2017-Jan-09 14:33N 46°36' E 031°43'8 7.6
2017-Jan-09 13:33N 46°38' E 031°54'7 6.9
2017-Jan-09 12:33N 46°44' E 031°55'3 2.7
2017-Jan-09 11:31N 46°47' E 031°53'0 0.0
2017-Jan-09 10:31N 46°47' E 031°53'1 1.2
2017-Jan-09 09:33N 46°48' E 031°53'7 6.7
2017-Jan-09 08:33N 46°53' E 031°60'3 3.2
2017-Jan-09 07:31N 46°56' E 031°60'0 0.0
2017-Jan-09 06:31N 46°56' E 031°60'0 0.0
2017-Jan-09 05:31N 46°56' E 031°60'0 0.0
2017-Jan-09 04:31N 46°56' E 031°60'0 0.0
2017-Jan-09 03:31N 46°56' E 031°60'0 0.0
2017-Jan-09 02:31N 46°56' E 031°60'0 0.0
2017-Jan-09 01:31N 46°56' E 031°60'0 0.0
2017-Jan-09 00:31N 46°56' E 031°60'0 0.0
2017-Jan-08 23:31N 46°56' E 031°60'0 0.0
2017-Jan-08 22:31N 46°56' E 031°60'0 0.0
2017-Jan-08 21:31N 46°56' E 031°60'0 0.0
2017-Jan-08 20:31N 46°56' E 031°60'0 0.0
2017-Jan-08 19:31N 46°56' E 031°60'0 0.0
2017-Jan-08 18:31N 46°56' E 031°60'0 0.0
2017-Jan-08 17:31N 46°56' E 031°60'0 0.0
2017-Jan-08 16:31N 46°56' E 031°60'0 0.0
2017-Jan-08 15:31N 46°56' E 031°60'0 0.0
2017-Jan-08 14:31N 46°56' E 031°60'0 0.0
2017-Jan-08 13:31N 46°56' E 031°60'0 0.0
2017-Jan-08 12:31N 46°56' E 031°60'0 0.0
2017-Jan-08 11:31N 46°56' E 031°60'0 0.0
2017-Jan-08 10:25N 46°56' E 031°60'0 0.0
2017-Jan-08 09:31N 46°56' E 031°60'0 0.0
2017-Jan-08 08:31N 46°56' E 031°60'0 0.0
2017-Jan-08 07:31N 46°56' E 031°60'0 0.0
2017-Jan-08 06:32N 46°56' E 031°60'0 0.0
2017-Jan-08 05:32N 46°56' E 031°60'0 0.0
2017-Jan-08 04:32N 46°56' E 031°60'0 0.0
2017-Jan-08 03:32N 46°56' E 031°60'0 0.0
2017-Jan-08 02:32N 46°56' E 031°60'0 0.0
2017-Jan-08 01:32N 46°56' E 031°60'0 0.0
2017-Jan-08 00:32N 46°56' E 031°60'0 0.0
2017-Jan-07 23:32N 46°56' E 031°60'0 0.0
2017-Jan-07 22:32N 46°56' E 031°60'0 0.0
2017-Jan-07 21:32N 46°56' E 031°60'0 0.0
2017-Jan-07 20:32N 46°56' E 031°60'0 0.0
2017-Jan-07 19:32N 46°56' E 031°60'0 0.0
2017-Jan-07 18:32N 46°56' E 031°60'0 0.0
2017-Jan-07 17:32N 46°56' E 031°60'0 0.0
2017-Jan-07 16:32N 46°56' E 031°60'0 0.0
2017-Jan-07 15:32N 46°56' E 031°60'0 0.0
2017-Jan-07 14:32N 46°56' E 031°60'2 0.9
2017-Jan-07 12:28N 46°56' E 031°57'0 0.0
2017-Jan-07 11:28N 46°56' E 031°57'0 0.0
2017-Jan-07 09:31N 46°56' E 031°57'0 0.0
2017-Jan-07 08:28N 46°56' E 031°57'0 0.0
2017-Jan-07 07:28N 46°56' E 031°57'0 0.0
2017-Jan-07 06:28N 46°56' E 031°57'0 0.0
2017-Jan-07 05:28N 46°56' E 031°57'0 0.0
2017-Jan-07 04:31N 46°56' E 031°57'0 0.0
2017-Jan-07 03:28N 46°56' E 031°57'0 0.0
2017-Jan-07 02:28N 46°56' E 031°57'0 0.0
2017-Jan-07 01:28N 46°56' E 031°57'0 0.0
2017-Jan-07 00:28N 46°56' E 031°57'0 0.0
2017-Jan-06 23:31N 46°56' E 031°57'0 0.0
2017-Jan-06 22:31N 46°56' E 031°57'0 0.0
2017-Jan-06 21:31N 46°56' E 031°57'0 0.0
2017-Jan-06 20:28N 46°56' E 031°57'0 0.0
2017-Jan-06 19:28N 46°56' E 031°57'0 0.0
2017-Jan-06 18:28N 46°56' E 031°57'0 0.0
2017-Jan-06 17:28N 46°56' E 031°57'0 0.0
2017-Jan-06 16:28N 46°56' E 031°57'0 0.0
2017-Jan-06 15:34N 46°56' E 031°57'0 0.0
2017-Jan-06 14:10N 46°56' E 031°57'0 0.0
2017-Jan-06 13:28N 46°56' E 031°57'0 0.0
2017-Jan-06 12:28N 46°56' E 031°57'0 0.0
2017-Jan-06 11:28N 46°56' E 031°57'0 0.0
2017-Jan-06 10:28N 46°56' E 031°57'0 0.0
2017-Jan-06 09:28N 46°56' E 031°57'0 0.0
2017-Jan-06 08:31N 46°56' E 031°57'0 0.0
2017-Jan-06 07:31N 46°56' E 031°57'0 0.0
2017-Jan-06 06:28N 46°56' E 031°57'0 0.0
2017-Jan-06 05:28N 46°56' E 031°57'0 0.0
2017-Jan-06 04:28N 46°56' E 031°57'0 0.0
2017-Jan-06 03:28N 46°56' E 031°57'0 0.0
2017-Jan-06 02:28N 46°56' E 031°57'0 0.0
2017-Jan-06 01:28N 46°56' E 031°57'0 0.0
2017-Jan-06 00:28N 46°56' E 031°57'0 0.0
2017-Jan-05 23:28N 46°56' E 031°57'0 0.0
2017-Jan-05 22:28N 46°56' E 031°57'0 0.0
2017-Jan-05 21:28N 46°56' E 031°57'0 0.0
2017-Jan-05 20:28N 46°56' E 031°57'0 0.0
2017-Jan-05 19:16N 46°56' E 031°57'0 0.0
2017-Jan-05 18:28N 46°56' E 031°57'0 0.0
2017-Jan-05 17:31N 46°56' E 031°57'0 0.0
2017-Jan-05 16:31N 46°56' E 031°57'0 0.0
2017-Jan-05 15:31N 46°56' E 031°57'0 0.0
2017-Jan-05 14:31N 46°56' E 031°57'0 0.0
2017-Jan-05 13:31N 46°56' E 031°57'0 0.0
2017-Jan-05 12:31N 46°56' E 031°57'0 0.0
2017-Jan-05 11:31N 46°56' E 031°57'0 0.0
2017-Jan-05 10:31N 46°56' E 031°57'0 0.0
2017-Jan-05 09:31N 46°56' E 031°57'0 0.0
2017-Jan-05 08:31N 46°56' E 031°57'0 0.0
2017-Jan-05 07:31N 46°56' E 031°57'0 0.0
2017-Jan-05 06:31N 46°56' E 031°57'0 0.0
2017-Jan-05 05:31N 46°56' E 031°57'0 0.0
2017-Jan-05 04:31N 46°56' E 031°57'0 0.0
2017-Jan-05 03:28N 46°56' E 031°57'0 0.0
2017-Jan-05 02:28N 46°56' E 031°57'0 0.0
2017-Jan-05 01:28N 46°56' E 031°57'0 0.0
2017-Jan-05 00:28N 46°56' E 031°57'0 0.0
2017-Jan-04 23:28N 46°56' E 031°57'0 0.0
2017-Jan-04 22:28N 46°56' E 031°57'0 0.0
2017-Jan-04 21:28N 46°56' E 031°57'42 1.6
2017-Jan-03 19:18N 46°34' E 031°04'6 7.7
2017-Jan-03 18:29N 46°30' E 030°57'  

Dump ship's entire track history